Carnesville, GA

9:55 PM EST on March 04, 2015 (GMT -0500)
Not Bar Farm | Change Station
CLOSE
Current Station
Personal Weather Station
Location: Danielsville, GA
Elevation: 666 ft
Nearby Weather Stations

Elev 666 ft 34.25 °N, 83.32 °W | Updated 13 seconds ago

Partly Cloudy
Partly Cloudy
67.8 °F
Feels Like 67.8 °F
N
4.3
Wind Variable Wind from WSW
Gusts 5.0 mph

Today
High -- | Low -- °F
--% Chance of Precip.
Yesterday
High -- | Low -- °F
Precip. -- in
6:58 AM 6:31 PM
Full, 100% visible
Pressure 29.91 in
Visibility 10.0 miles
Clouds Scattered Clouds 7000 ft
Dew Point 62 °F
Humidity 82%
Rainfall 0.00 in
Snow Depth Not available.
UV 0 out of 12
Pollen 8.40 out of 12
Air Quality Not available.
Flu Activity Not available.
METAR KTOC 050155Z AUTO 23008KT 10SM SCT070 20/15 A2991 RMK AO2 T01950147

More Conditions Fewer Conditions

Pressure 29.91 in
Visibility 10.0 miles
Clouds Scattered Clouds 7000 ft
Dew Point 62 °F
Humidity 82%
Rainfall 0.00 in
Snow Depth Not available.
UV 0 out of 12
Pollen 8.40 out of 12
Air Quality Not available.
Flu Activity Not available.
METAR KTOC 050155Z AUTO 23008KT 10SM SCT070 20/15 A2991 RMK AO2 T01950147

More Conditions Fewer Conditions

10-Day Weather Forecast

Almanac

Astronomy

Mar. 04, 2015 Rise Set
Actual Time
Civil Twilight
Nautical Twilight
Astronomical Twilight
Moon
Length of Visible Light
Length of Day
Tomorrow will be .
, % of the Moon is Illuminated

Today's Extremes

State Highs State Lows

Community

WunderPhotos

Upload Photos

1,802,634 photos uploaded!

WunderBlogs® & News

Nearby

Air Quality

  Air Quality AQ Index Pollutant
Not available.

Snow Depth

Station Depth Elevation

Earthquake Activity

City Distance Mag. Time & Date
Minimum magnitude displayed is 2.5.

Coastal Water Temperatures

Place Temperature

Nearby Weather Stations